sensor_id;sensor_type;location;lat;lon;timestamp;pressure;altitude;pressure_sealevel;temperature;humidity
81155;BME280;70631;50.436;7.826;2024-01-30T00:01:00;100468.44;;;1.05;75.72
81155;BME280;70631;50.436;7.826;2024-01-30T00:03:25;100462.34;;;1.04;76.42
81155;BME280;70631;50.436;7.826;2024-01-30T00:05:50;100472.84;;;1.04;76.30
81155;BME280;70631;50.436;7.826;2024-01-30T00:08:15;100471.97;;;1.04;76.16
81155;BME280;70631;50.436;7.826;2024-01-30T00:10:41;100468.44;;;1.05;76.66
81155;BME280;70631;50.436;7.826;2024-01-30T00:13:06;100474.53;;;1.05;76.58
81155;BME280;70631;50.436;7.826;2024-01-30T00:15:32;100470.22;;;1.04;76.38
81155;BME280;70631;50.436;7.826;2024-01-30T00:17:57;100466.72;;;1.04;76.37
81155;BME280;70631;50.436;7.826;2024-01-30T00:20:22;100465.06;;;1.01;76.35
81155;BME280;70631;50.436;7.826;2024-01-30T00:22:48;100472.09;;;1.01;76.45
81155;BME280;70631;50.436;7.826;2024-01-30T00:25:13;100467.69;;;1.01;76.75
81155;BME280;70631;50.436;7.826;2024-01-30T00:27:38;100465.00;;;1.03;76.75
81155;BME280;70631;50.436;7.826;2024-01-30T00:30:04;100459.88;;;1.00;76.82
81155;BME280;70631;50.436;7.826;2024-01-30T00:32:29;100461.91;;;0.91;76.53
81155;BME280;70631;50.436;7.826;2024-01-30T00:34:55;100458.38;;;0.93;76.39
81155;BME280;70631;50.436;7.826;2024-01-30T00:37:20;100457.63;;;0.89;76.19
81155;BME280;70631;50.436;7.826;2024-01-30T00:39:45;100462.88;;;0.89;76.37
81155;BME280;70631;50.436;7.826;2024-01-30T00:42:10;100469.16;;;0.83;76.55
81155;BME280;70631;50.436;7.826;2024-01-30T00:44:36;100464.78;;;0.84;76.47
81155;BME280;70631;50.436;7.826;2024-01-30T00:47:03;100464.78;;;0.84;76.45
81155;BME280;70631;50.436;7.826;2024-01-30T00:49:28;100464.19;;;0.76;76.61
81155;BME280;70631;50.436;7.826;2024-01-30T00:51:54;100467.59;;;0.78;76.53
81155;BME280;70631;50.436;7.826;2024-01-30T00:54:19;100464.06;;;0.79;76.86
81155;BME280;70631;50.436;7.826;2024-01-30T00:56:44;100464.13;;;0.77;76.82
81155;BME280;70631;50.436;7.826;2024-01-30T00:59:11;100468.50;;;0.77;76.56
81155;BME280;70631;50.436;7.826;2024-01-30T01:01:36;100463.31;;;0.75;76.81
81155;BME280;70631;50.436;7.826;2024-01-30T01:04:01;100461.75;;;0.70;76.81
81155;BME280;70631;50.436;7.826;2024-01-30T01:06:27;100460.84;;;0.71;76.87
81155;BME280;70631;50.436;7.826;2024-01-30T01:08:52;100457.38;;;0.70;76.93
81155;BME280;70631;50.436;7.826;2024-01-30T01:11:18;100458.19;;;0.72;76.65
81155;BME280;70631;50.436;7.826;2024-01-30T01:13:43;100462.53;;;0.73;76.92
81155;BME280;70631;50.436;7.826;2024-01-30T01:16:08;100457.31;;;0.72;76.92
81155;BME280;70631;50.436;7.826;2024-01-30T01:18:33;100459.09;;;0.71;77.10
81155;BME280;70631;50.436;7.826;2024-01-30T01:20:59;100451.28;;;0.70;77.00
81155;BME280;70631;50.436;7.826;2024-01-30T01:23:24;100453.09;;;0.68;77.25
81155;BME280;70631;50.436;7.826;2024-01-30T01:25:49;100446.03;;;0.70;77.08
81155;BME280;70631;50.436;7.826;2024-01-30T01:28:14;100459.16;;;0.70;77.36
81155;BME280;70631;50.436;7.826;2024-01-30T01:30:40;100454.69;;;0.72;77.08
81155;BME280;70631;50.436;7.826;2024-01-30T01:33:05;100451.38;;;0.67;77.19
81155;BME280;70631;50.436;7.826;2024-01-30T01:35:31;100450.41;;;0.69;77.16
81155;BME280;70631;50.436;7.826;2024-01-30T01:37:57;100448.03;;;0.61;76.95
81155;BME280;70631;50.436;7.826;2024-01-30T01:40:25;100449.75;;;0.63;76.96
81155;BME280;70631;50.436;7.826;2024-01-30T01:42:51;100442.78;;;0.61;77.14
81155;BME280;70631;50.436;7.826;2024-01-30T01:45:17;100440.09;;;0.63;76.95
81155;BME280;70631;50.436;7.826;2024-01-30T01:47:43;100441.88;;;0.63;76.91
81155;BME280;70631;50.436;7.826;2024-01-30T01:50:12;100445.41;;;0.61;77.23
81155;BME280;70631;50.436;7.826;2024-01-30T01:52:39;100447.97;;;0.63;76.94
81155;BME280;70631;50.436;7.826;2024-01-30T01:55:05;100445.47;;;0.60;77.35
81155;BME280;70631;50.436;7.826;2024-01-30T01:57:31;100449.19;;;0.53;76.92
81155;BME280;70631;50.436;7.826;2024-01-30T01:59:56;100443.09;;;0.52;76.97
81155;BME280;70631;50.436;7.826;2024-01-30T02:02:23;100444.81;;;0.53;77.24
81155;BME280;70631;50.436;7.826;2024-01-30T02:04:49;100436.09;;;0.53;77.10
81155;BME280;70631;50.436;7.826;2024-01-30T02:07:15;100442.19;;;0.53;77.24
81155;BME280;70631;50.436;7.826;2024-01-30T02:09:40;100446.63;;;0.51;77.41
81155;BME280;70631;50.436;7.826;2024-01-30T02:12:06;100445.75;;;0.51;77.36
81155;BME280;70631;50.436;7.826;2024-01-30T02:14:31;100444.09;;;0.48;77.52
81155;BME280;70631;50.436;7.826;2024-01-30T02:16:56;100440.63;;;0.48;77.60
81155;BME280;70631;50.436;7.826;2024-01-30T02:19:22;100431.00;;;0.48;77.28
81155;BME280;70631;50.436;7.826;2024-01-30T02:21:47;100433.66;;;0.47;77.48
81155;BME280;70631;50.436;7.826;2024-01-30T02:24:13;100434.53;;;0.47;77.73
81155;BME280;70631;50.436;7.826;2024-01-30T02:26:38;100428.38;;;0.48;77.40
81155;BME280;70631;50.436;7.826;2024-01-30T02:29:03;100428.38;;;0.48;77.13
81155;BME280;70631;50.436;7.826;2024-01-30T02:31:28;100435.44;;;0.46;77.35
81155;BME280;70631;50.436;7.826;2024-01-30T02:33:54;100435.50;;;0.45;77.42
81155;BME280;70631;50.436;7.826;2024-01-30T02:36:19;100432.03;;;0.43;77.66
81155;BME280;70631;50.436;7.826;2024-01-30T02:38:44;100430.38;;;0.40;77.62
81155;BME280;70631;50.436;7.826;2024-01-30T02:41:11;100424.22;;;0.41;77.62
81155;BME280;70631;50.436;7.826;2024-01-30T02:43:36;100425.28;;;0.36;77.50
81155;BME280;70631;50.436;7.826;2024-01-30T02:46:02;100425.34;;;0.34;77.25
81155;BME280;70631;50.436;7.826;2024-01-30T02:48:27;100422.66;;;0.36;77.33
81155;BME280;70631;50.436;7.826;2024-01-30T02:50:52;100420.91;;;0.36;77.31
81155;BME280;70631;50.436;7.826;2024-01-30T02:53:17;100424.41;;;0.35;77.85
81155;BME280;70631;50.436;7.826;2024-01-30T02:55:43;100425.22;;;0.37;77.75
81155;BME280;70631;50.436;7.826;2024-01-30T02:58:08;100424.31;;;0.38;77.73
81155;BME280;70631;50.436;7.826;2024-01-30T03:00:34;100420.91;;;0.36;77.70
81155;BME280;70631;50.436;7.826;2024-01-30T03:02:59;100418.31;;;0.35;77.63
81155;BME280;70631;50.436;7.826;2024-01-30T03:05:24;100420.91;;;0.36;77.72
81155;BME280;70631;50.436;7.826;2024-01-30T03:07:50;100426.13;;;0.36;77.53
81155;BME280;70631;50.436;7.826;2024-01-30T03:10:15;100420.91;;;0.36;77.53
81155;BME280;70631;50.436;7.826;2024-01-30T03:12:40;100410.47;;;0.35;77.76
81155;BME280;70631;50.436;7.826;2024-01-30T03:15:06;100407.78;;;0.36;77.74
81155;BME280;70631;50.436;7.826;2024-01-30T03:17:31;100407.84;;;0.35;77.50
81155;BME280;70631;50.436;7.826;2024-01-30T03:19:57;100406.34;;;0.27;77.50
81155;BME280;70631;50.436;7.826;2024-01-30T03:22:22;100407.19;;;0.28;77.44
81155;BME280;70631;50.436;7.826;2024-01-30T03:24:47;100409.72;;;0.31;77.59
81155;BME280;70631;50.436;7.826;2024-01-30T03:27:13;100405.31;;;0.32;77.28
81155;BME280;70631;50.436;7.826;2024-01-30T03:29:38;100397.66;;;0.25;77.33
81155;BME280;70631;50.436;7.826;2024-01-30T03:32:04;100403.88;;;0.23;77.36
81155;BME280;70631;50.436;7.826;2024-01-30T03:34:29;100409.91;;;0.25;77.59
81155;BME280;70631;50.436;7.826;2024-01-30T03:36:54;100400.22;;;0.27;77.49
81155;BME280;70631;50.436;7.826;2024-01-30T03:39:20;100402.00;;;0.26;77.62
81155;BME280;70631;50.436;7.826;2024-01-30T03:41:45;100397.66;;;0.25;77.70
81155;BME280;70631;50.436;7.826;2024-01-30T03:44:11;100405.53;;;0.25;77.68
81155;BME280;70631;50.436;7.826;2024-01-30T03:46:36;100405.47;;;0.27;77.81
81155;BME280;70631;50.436;7.826;2024-01-30T03:49:02;100400.22;;;0.27;77.82
81155;BME280;70631;50.436;7.826;2024-01-30T03:51:27;100403.75;;;0.26;77.53
81155;BME280;70631;50.436;7.826;2024-01-30T03:53:52;100406.44;;;0.24;77.68
81155;BME280;70631;50.436;7.826;2024-01-30T03:56:18;100408.16;;;0.25;77.42
81155;BME280;70631;50.436;7.826;2024-01-30T03:58:43;100409.84;;;0.26;77.90
81155;BME280;70631;50.436;7.826;2024-01-30T04:01:13;100406.44;;;0.24;77.72
81155;BME280;70631;50.436;7.826;2024-01-30T04:03:38;100402.97;;;0.24;77.62
81155;BME280;70631;50.436;7.826;2024-01-30T04:06:04;100404.66;;;0.25;77.55
81155;BME280;70631;50.436;7.826;2024-01-30T04:08:29;100407.34;;;0.23;77.68
81155;BME280;70631;50.436;7.826;2024-01-30T04:10:54;100399.47;;;0.23;77.83
81155;BME280;70631;50.436;7.826;2024-01-30T04:13:19;100404.72;;;0.23;77.75
81155;BME280;70631;50.436;7.826;2024-01-30T04:15:45;100399.47;;;0.23;77.80
81155;BME280;70631;50.436;7.826;2024-01-30T04:18:10;100402.09;;;0.23;77.94
81155;BME280;70631;50.436;7.826;2024-01-30T04:20:35;100402.91;;;0.25;77.63
81155;BME280;70631;50.436;7.826;2024-01-30T04:23:01;100393.38;;;0.23;77.77
81155;BME280;70631;50.436;7.826;2024-01-30T04:25:26;100395.09;;;0.24;77.67
81155;BME280;70631;50.436;7.826;2024-01-30T04:27:51;100399.44;;;0.25;77.80
81155;BME280;70631;50.436;7.826;2024-01-30T04:30:16;100397.78;;;0.22;77.63
81155;BME280;70631;50.436;7.826;2024-01-30T04:32:42;100399.66;;;0.17;77.83
81155;BME280;70631;50.436;7.826;2024-01-30T04:35:08;100405.81;;;0.16;77.66
81155;BME280;70631;50.436;7.826;2024-01-30T04:37:33;100407.50;;;0.17;77.61
81155;BME280;70631;50.436;7.826;2024-01-30T04:39:58;100400.56;;;0.16;77.46
81155;BME280;70631;50.436;7.826;2024-01-30T04:42:23;100409.28;;;0.17;77.52
81155;BME280;70631;50.436;7.826;2024-01-30T04:44:49;100397.09;;;0.16;77.78
81155;BME280;70631;50.436;7.826;2024-01-30T04:47:14;100397.09;;;0.16;77.62
81155;BME280;70631;50.436;7.826;2024-01-30T04:49:40;100397.94;;;0.16;78.02
81155;BME280;70631;50.436;7.826;2024-01-30T04:52:06;100397.94;;;0.16;78.08
81155;BME280;70631;50.436;7.826;2024-01-30T04:54:31;100398.00;;;0.15;78.34
81155;BME280;70631;50.436;7.826;2024-01-30T04:56:57;100402.31;;;0.16;78.08
81155;BME280;70631;50.436;7.826;2024-01-30T04:59:22;100397.88;;;0.18;78.23
81155;BME280;70631;50.436;7.826;2024-01-30T05:01:47;100397.94;;;0.16;77.98
81155;BME280;70631;50.436;7.826;2024-01-30T05:04:13;100397.84;;;0.19;78.30
81155;BME280;70631;50.436;7.826;2024-01-30T05:06:38;100389.22;;;0.16;78.17
81155;BME280;70631;50.436;7.826;2024-01-30T05:09:03;100401.38;;;0.18;78.04
81155;BME280;70631;50.436;7.826;2024-01-30T05:11:29;100396.13;;;0.18;78.08
81155;BME280;70631;50.436;7.826;2024-01-30T05:13:55;100390.88;;;0.18;78.01
81155;BME280;70631;50.436;7.826;2024-01-30T05:16:20;100391.75;;;0.19;78.02
81155;BME280;70631;50.436;7.826;2024-01-30T05:18:45;100386.59;;;0.16;78.14
81155;BME280;70631;50.436;7.826;2024-01-30T05:21:10;100377.94;;;0.14;78.44
81155;BME280;70631;50.436;7.826;2024-01-30T05:23:36;100383.06;;;0.17;78.39
81155;BME280;70631;50.436;7.826;2024-01-30T05:26:01;100383.97;;;0.16;78.46
81155;BME280;70631;50.436;7.826;2024-01-30T05:28:28;100385.75;;;0.15;78.45
81155;BME280;70631;50.436;7.826;2024-01-30T05:30:53;100387.50;;;0.15;78.06
81155;BME280;70631;50.436;7.826;2024-01-30T05:33:19;100383.13;;;0.15;78.19
81155;BME280;70631;50.436;7.826;2024-01-30T05:35:44;100397.13;;;0.14;78.12
81155;BME280;70631;50.436;7.826;2024-01-30T05:38:11;100395.47;;;0.12;78.39
81155;BME280;70631;50.436;7.826;2024-01-30T05:40:36;100395.53;;;0.10;78.18
81155;BME280;70631;50.436;7.826;2024-01-30T05:43:01;100394.88;;;0.04;78.08
81155;BME280;70631;50.436;7.826;2024-01-30T05:45:27;100397.38;;;0.07;78.06
81155;BME280;70631;50.436;7.826;2024-01-30T05:47:53;100399.19;;;0.05;77.92
81155;BME280;70631;50.436;7.826;2024-01-30T05:50:21;100393.16;;;0.03;78.18
81155;BME280;70631;50.436;7.826;2024-01-30T05:52:48;100395.78;;;0.03;78.14
81155;BME280;70631;50.436;7.826;2024-01-30T05:55:13;100395.84;;;-0.01;78.45
81155;BME280;70631;50.436;7.826;2024-01-30T05:57:39;100394.06;;;0.02;78.31
81155;BME280;70631;50.436;7.826;2024-01-30T06:00:05;100400.16;;;0.02;78.37
81155;BME280;70631;50.436;7.826;2024-01-30T06:02:31;100391.44;;;0.02;78.55
81155;BME280;70631;50.436;7.826;2024-01-30T06:04:56;100395.03;;;-0.03;78.27
81155;BME280;70631;50.436;7.826;2024-01-30T06:07:21;100392.34;;;0.01;78.63
81155;BME280;70631;50.436;7.826;2024-01-30T06:09:47;100399.31;;;0.02;78.42
81155;BME280;70631;50.436;7.826;2024-01-30T06:12:12;100395.84;;;-0.01;78.80
81155;BME280;70631;50.436;7.826;2024-01-30T06:14:37;100394.13;;;-0.02;79.02
81155;BME280;70631;50.436;7.826;2024-01-30T06:17:03;100387.13;;;-0.01;78.44
81155;BME280;70631;50.436;7.826;2024-01-30T06:19:28;100389.72;;;0.01;78.57
81155;BME280;70631;50.436;7.826;2024-01-30T06:21:53;100387.09;;;0.01;78.68
81155;BME280;70631;50.436;7.826;2024-01-30T06:24:19;100387.97;;;-0.01;78.84
81155;BME280;70631;50.436;7.826;2024-01-30T06:26:44;100393.22;;;-0.01;78.74
81155;BME280;70631;50.436;7.826;2024-01-30T06:29:09;100382.78;;;-0.02;78.79
81155;BME280;70631;50.436;7.826;2024-01-30T06:31:42;100387.13;;;-0.01;78.85
81155;BME280;70631;50.436;7.826;2024-01-30T06:34:09;100391.56;;;-0.03;78.46
81155;BME280;70631;50.436;7.826;2024-01-30T06:36:34;100386.38;;;-0.05;78.75
81155;BME280;70631;50.436;7.826;2024-01-30T06:39:01;100393.38;;;-0.05;78.68
81155;BME280;70631;50.436;7.826;2024-01-30T06:41:26;100399.56;;;-0.08;78.82
81155;BME280;70631;50.436;7.826;2024-01-30T06:43:52;100400.41;;;-0.07;78.55
81155;BME280;70631;50.436;7.826;2024-01-30T06:46:17;100405.75;;;-0.10;78.70
81155;BME280;70631;50.436;7.826;2024-01-30T06:48:42;100396.13;;;-0.10;78.92
81155;BME280;70631;50.436;7.826;2024-01-30T06:51:10;100397.84;;;-0.09;78.72
81155;BME280;70631;50.436;7.826;2024-01-30T06:53:35;100396.13;;;-0.10;78.52
81155;BME280;70631;50.436;7.826;2024-01-30T06:56:00;100389.19;;;-0.11;78.70
81155;BME280;70631;50.436;7.826;2024-01-30T06:58:26;100399.59;;;-0.09;78.64
81155;BME280;70631;50.436;7.826;2024-01-30T07:00:51;100390.09;;;-0.12;78.47
81155;BME280;70631;50.436;7.826;2024-01-30T07:03:17;100394.41;;;-0.11;78.52
81155;BME280;70631;50.436;7.826;2024-01-30T07:05:42;100390.91;;;-0.10;78.51
81155;BME280;70631;50.436;7.826;2024-01-30T07:08:08;100391.81;;;-0.11;78.52
81155;BME280;70631;50.436;7.826;2024-01-30T07:10:33;100399.66;;;-0.11;78.40
81155;BME280;70631;50.436;7.826;2024-01-30T07:13:00;100408.31;;;-0.09;78.64
81155;BME280;70631;50.436;7.826;2024-01-30T07:15:25;100405.72;;;-0.09;78.64
81155;BME280;70631;50.436;7.826;2024-01-30T07:17:50;100417.00;;;-0.07;78.61
81155;BME280;70631;50.436;7.826;2024-01-30T07:20:16;100410.78;;;-0.04;78.70
81155;BME280;70631;50.436;7.826;2024-01-30T07:22:41;100401.06;;;0.01;78.60
81155;BME280;70631;50.436;7.826;2024-01-30T07:25:07;100407.88;;;0.07;78.70
81155;BME280;70631;50.436;7.826;2024-01-30T07:27:32;100415.47;;;0.14;78.52
81155;BME280;70631;50.436;7.826;2024-01-30T07:29:57;100413.59;;;0.18;78.96
81155;BME280;70631;50.436;7.826;2024-01-30T07:32:22;100412.53;;;0.25;78.51
81155;BME280;70631;50.436;7.826;2024-01-30T07:34:48;100413.19;;;0.32;79.04
81155;BME280;70631;50.436;7.826;2024-01-30T07:37:14;100418.97;;;0.41;78.80
81155;BME280;70631;50.436;7.826;2024-01-30T07:39:40;100420.41;;;0.51;78.54
81155;BME280;70631;50.436;7.826;2024-01-30T07:42:06;100417.53;;;0.59;78.68
81155;BME280;70631;50.436;7.826;2024-01-30T07:44:31;100418.94;;;0.69;78.62
81155;BME280;70631;50.436;7.826;2024-01-30T07:46:56;100416.00;;;0.78;78.80
81155;BME280;70631;50.436;7.826;2024-01-30T07:49:22;100420.91;;;0.89;78.78
81155;BME280;70631;50.436;7.826;2024-01-30T07:51:47;100419.59;;;1.01;78.47
81155;BME280;70631;50.436;7.826;2024-01-30T07:54:12;100414.91;;;1.10;78.49
81155;BME280;70631;50.436;7.826;2024-01-30T07:56:38;100422.44;;;1.19;78.32
81155;BME280;70631;50.436;7.826;2024-01-30T07:59:03;100422.81;;;1.34;78.39
81155;BME280;70631;50.436;7.826;2024-01-30T08:01:28;100415.63;;;1.39;78.23
81155;BME280;70631;50.436;7.826;2024-01-30T08:03:53;100424.97;;;1.46;78.37
81155;BME280;70631;50.436;7.826;2024-01-30T08:06:19;100425.66;;;1.51;78.05
81155;BME280;70631;50.436;7.826;2024-01-30T08:08:44;100423.75;;;1.56;78.10
81155;BME280;70631;50.436;7.826;2024-01-30T08:11:10;100427.28;;;1.55;78.30
81155;BME280;70631;50.436;7.826;2024-01-30T08:13:35;100423.63;;;1.59;78.05
81155;BME280;70631;50.436;7.826;2024-01-30T08:16:00;100426.94;;;1.64;77.91
81155;BME280;70631;50.436;7.826;2024-01-30T08:18:26;100424.13;;;1.69;77.88
81155;BME280;70631;50.436;7.826;2024-01-30T08:20:51;100431.91;;;1.72;77.62
81155;BME280;70631;50.436;7.826;2024-01-30T08:23:16;100424.00;;;1.72;77.86
81155;BME280;70631;50.436;7.826;2024-01-30T08:25:42;100423.97;;;1.73;77.78
81155;BME280;70631;50.436;7.826;2024-01-30T08:28:07;100422.03;;;1.78;77.97
81155;BME280;70631;50.436;7.826;2024-01-30T08:30:33;100422.78;;;1.82;77.50
81155;BME280;70631;50.436;7.826;2024-01-30T08:32:58;100413.78;;;1.88;77.83
81155;BME280;70631;50.436;7.826;2024-01-30T08:35:24;100409.13;;;1.96;77.52
81155;BME280;70631;50.436;7.826;2024-01-30T08:37:49;100418.81;;;1.94;77.76
81155;BME280;70631;50.436;7.826;2024-01-30T08:40:14;100405.31;;;2.03;77.32
81155;BME280;70631;50.436;7.826;2024-01-30T08:42:40;100414.53;;;2.13;77.39
81155;BME280;70631;50.436;7.826;2024-01-30T08:45:05;100425.91;;;2.13;77.24
81155;BME280;70631;50.436;7.826;2024-01-30T08:47:30;100427.34;;;2.22;77.09
81155;BME280;70631;50.436;7.826;2024-01-30T08:49:56;100435.72;;;2.32;77.15
81155;BME280;70631;50.436;7.826;2024-01-30T08:52:21;100418.16;;;2.32;77.29
81155;BME280;70631;50.436;7.826;2024-01-30T08:54:46;100424.00;;;2.40;77.03
81155;BME280;70631;50.436;7.826;2024-01-30T08:57:12;100420.31;;;2.44;76.97
81155;BME280;70631;50.436;7.826;2024-01-30T08:59:37;100422.81;;;2.48;76.78
81155;BME280;70631;50.436;7.826;2024-01-30T09:02:02;100422.56;;;2.54;76.90
81155;BME280;70631;50.436;7.826;2024-01-30T09:04:28;100426.09;;;2.53;77.09
81155;BME280;70631;50.436;7.826;2024-01-30T09:06:53;100427.63;;;2.58;77.38
81155;BME280;70631;50.436;7.826;2024-01-30T09:09:19;100430.19;;;2.60;77.32
81155;BME280;70631;50.436;7.826;2024-01-30T09:11:44;100431.06;;;2.60;76.85
81155;BME280;70631;50.436;7.826;2024-01-30T09:14:09;100421.22;;;2.65;76.73
81155;BME280;70631;50.436;7.826;2024-01-30T09:16:34;100425.91;;;2.57;76.89
81155;BME280;70631;50.436;7.826;2024-01-30T09:19:00;100416.16;;;2.61;76.79
81155;BME280;70631;50.436;7.826;2024-01-30T09:21:25;100411.84;;;2.58;77.00
81155;BME280;70631;50.436;7.826;2024-01-30T09:23:53;100420.41;;;2.63;77.13
81155;BME280;70631;50.436;7.826;2024-01-30T09:26:19;100420.34;;;2.65;77.20
81155;BME280;70631;50.436;7.826;2024-01-30T09:28:44;100415.16;;;2.63;77.10
81155;BME280;70631;50.436;7.826;2024-01-30T09:31:10;100417.47;;;2.71;77.43
81155;BME280;70631;50.436;7.826;2024-01-30T09:33:35;100426.16;;;2.73;77.24
81155;BME280;70631;50.436;7.826;2024-01-30T09:36:01;100421.31;;;2.84;77.31
81155;BME280;70631;50.436;7.826;2024-01-30T09:38:26;100421.16;;;2.87;77.40
81155;BME280;70631;50.436;7.826;2024-01-30T09:40:54;100422.34;;;3.00;77.22
81155;BME280;70631;50.436;7.826;2024-01-30T09:43:22;100433.16;;;3.15;77.34
81155;BME280;70631;50.436;7.826;2024-01-30T09:45:49;100425.50;;;3.29;77.10
81155;BME280;70631;50.436;7.826;2024-01-30T09:48:15;100432.72;;;3.44;77.19
81155;BME280;70631;50.436;7.826;2024-01-30T09:50:42;100423.06;;;3.63;76.56
81155;BME280;70631;50.436;7.826;2024-01-30T09:53:10;100431.34;;;3.75;76.73
81155;BME280;70631;50.436;7.826;2024-01-30T09:55:36;100437.22;;;4.00;76.36
81155;BME280;70631;50.436;7.826;2024-01-30T09:58:02;100429.13;;;4.22;76.16
81155;BME280;70631;50.436;7.826;2024-01-30T10:00:27;100430.81;;;4.42;75.75
81155;BME280;70631;50.436;7.826;2024-01-30T10:02:53;100440.00;;;4.52;75.97
81155;BME280;70631;50.436;7.826;2024-01-30T10:05:19;100444.59;;;4.66;75.21
81155;BME280;70631;50.436;7.826;2024-01-30T10:07:54;100439.03;;;4.72;75.17
81155;BME280;70631;50.436;7.826;2024-01-30T10:10:23;100441.13;;;4.82;75.03
81155;BME280;70631;50.436;7.826;2024-01-30T10:12:49;100432.75;;;4.91;74.81
81155;BME280;70631;50.436;7.826;2024-01-30T10:15:14;100432.50;;;4.96;75.44
81155;BME280;70631;50.436;7.826;2024-01-30T10:17:40;100431.81;;;5.10;75.02
81155;BME280;70631;50.436;7.826;2024-01-30T10:20:05;100420.84;;;5.17;75.01
81155;BME280;70631;50.436;7.826;2024-01-30T10:22:31;100434.91;;;5.35;74.23
81155;BME280;70631;50.436;7.826;2024-01-30T10:24:56;100423.88;;;5.44;73.72
81155;BME280;70631;50.436;7.826;2024-01-30T10:27:28;100433.94;;;5.53;74.13
81155;BME280;70631;50.436;7.826;2024-01-30T10:29:55;100431.66;;;5.63;74.18
81155;BME280;70631;50.436;7.826;2024-01-30T10:32:21;100425.28;;;5.83;73.71
81155;BME280;70631;50.436;7.826;2024-01-30T10:34:46;100420.25;;;6.11;72.82
81155;BME280;70631;50.436;7.826;2024-01-30T10:37:12;100429.97;;;6.27;73.07
81155;BME280;70631;50.436;7.826;2024-01-30T10:39:41;100424.00;;;6.39;72.93
81155;BME280;70631;50.436;7.826;2024-01-30T10:42:12;100414.72;;;6.62;72.24
81155;BME280;70631;50.436;7.826;2024-01-30T10:47:29;100418.91;;;10.56;65.81
81155;BME280;70631;50.436;7.826;2024-01-30T10:49:56;100413.16;;;11.66;64.30
81155;BME280;70631;50.436;7.826;2024-01-30T10:52:23;100410.84;;;12.71;61.65
81155;BME280;70631;50.436;7.826;2024-01-30T10:54:51;100417.66;;;13.70;59.66
81155;BME280;70631;50.436;7.826;2024-01-30T10:57:17;100418.53;;;14.11;58.33
81155;BME280;70631;50.436;7.826;2024-01-30T10:59:44;100421.59;;;14.46;56.08
81155;BME280;70631;50.436;7.826;2024-01-30T11:02:10;100424.75;;;14.30;56.09
81155;BME280;70631;50.436;7.826;2024-01-30T11:04:37;100420.56;;;13.97;56.85
81155;BME280;70631;50.436;7.826;2024-01-30T11:07:14;100425.53;;;13.71;58.11
81155;BME280;70631;50.436;7.826;2024-01-30T11:09:40;100425.00;;;13.26;57.59
81155;BME280;70631;50.436;7.826;2024-01-30T11:12:12;100411.59;;;13.26;57.41
81155;BME280;70631;50.436;7.826;2024-01-30T11:14:37;100416.09;;;13.47;56.92
81155;BME280;70631;50.436;7.826;2024-01-30T11:17:05;100416.13;;;13.77;56.81
81155;BME280;70631;50.436;7.826;2024-01-30T11:19:31;100408.22;;;14.16;57.01
81155;BME280;70631;50.436;7.826;2024-01-30T11:21:57;100404.06;;;14.42;55.67
81155;BME280;70631;50.436;7.826;2024-01-30T11:24:23;100397.19;;;14.49;54.63
81155;BME280;70631;50.436;7.826;2024-01-30T11:27:02;100394.22;;;14.72;54.78
81155;BME280;70631;50.436;7.826;2024-01-30T11:29:28;100398.19;;;14.87;54.03
81155;BME280;70631;50.436;7.826;2024-01-30T11:31:54;100391.97;;;15.06;53.76
81155;BME280;70631;50.436;7.826;2024-01-30T11:34:21;100386.16;;;15.29;53.81
81155;BME280;70631;50.436;7.826;2024-01-30T11:36:56;100393.06;;;15.42;53.95
81155;BME280;70631;50.436;7.826;2024-01-30T11:39:26;100395.09;;;15.20;53.27
81155;BME280;70631;50.436;7.826;2024-01-30T11:41:52;100397.28;;;15.44;53.27
81155;BME280;70631;50.436;7.826;2024-01-30T11:44:21;100395.69;;;15.61;52.62
81155;BME280;70631;50.436;7.826;2024-01-30T11:46:51;100390.00;;;15.74;53.08
81155;BME280;70631;50.436;7.826;2024-01-30T11:49:18;100375.91;;;15.99;51.80
81155;BME280;70631;50.436;7.826;2024-01-30T11:51:47;100378.72;;;15.61;52.65
81155;BME280;70631;50.436;7.826;2024-01-30T11:54:15;100369.50;;;15.16;52.57
81155;BME280;70631;50.436;7.826;2024-01-30T11:56:42;100368.25;;;14.72;53.71
81155;BME280;70631;50.436;7.826;2024-01-30T11:59:08;100362.41;;;14.28;54.43
81155;BME280;70631;50.436;7.826;2024-01-30T12:01:34;100356.81;;;13.91;55.40
81155;BME280;70631;50.436;7.826;2024-01-30T12:03:59;100353.44;;;13.59;56.04
81155;BME280;70631;50.436;7.826;2024-01-30T12:06:25;100346.75;;;13.43;56.90
81155;BME280;70631;50.436;7.826;2024-01-30T12:09:01;100321.63;;;13.35;57.27
81155;BME280;70631;50.436;7.826;2024-01-30T12:11:29;100320.22;;;13.31;58.00
81155;BME280;70631;50.436;7.826;2024-01-30T12:13:55;100327.09;;;13.12;59.16
81155;BME280;70631;50.436;7.826;2024-01-30T12:16:21;100318.56;;;12.98;60.63
81155;BME280;70631;50.436;7.826;2024-01-30T12:18:46;100328.81;;;12.93;61.12
81155;BME280;70631;50.436;7.826;2024-01-30T12:21:11;100334.88;;;12.95;61.17
81155;BME280;70631;50.436;7.826;2024-01-30T12:23:37;100343.63;;;12.97;61.63
81155;BME280;70631;50.436;7.826;2024-01-30T12:26:03;100340.94;;;12.97;61.72
81155;BME280;70631;50.436;7.826;2024-01-30T12:28:29;100319.81;;;12.94;62.00
81155;BME280;70631;50.436;7.826;2024-01-30T12:31:03;100322.69;;;12.81;62.14
81155;BME280;70631;50.436;7.826;2024-01-30T12:33:32;100328.03;;;12.81;62.56
81155;BME280;70631;50.436;7.826;2024-01-30T12:35:57;100322.56;;;12.82;62.51
81155;BME280;70631;50.436;7.826;2024-01-30T12:38:26;100327.84;;;12.94;62.36
81155;BME280;70631;50.436;7.826;2024-01-30T12:40:54;100328.09;;;12.91;62.77
81155;BME280;70631;50.436;7.826;2024-01-30T12:43:21;100327.84;;;12.94;62.55
81155;BME280;70631;50.436;7.826;2024-01-30T12:45:47;100332.59;;;12.90;62.98
81155;BME280;70631;50.436;7.826;2024-01-30T12:48:12;100338.09;;;12.89;62.89
81155;BME280;70631;50.436;7.826;2024-01-30T12:50:37;100339.47;;;12.83;63.17
81155;BME280;70631;50.436;7.826;2024-01-30T12:53:03;100335.31;;;12.79;63.30